Time;durP1;ratioP1;P1;durP2;ratioP2;P2;SDS_P1;SDS_P2;PMS_P1;PMS_P2;Temp;Humidity;BMP_temperature;BMP_pressure;BME280_temperature;BME280_humidity;BME280_pressure;Samples;Min_cycle;Max_cycle;Signal;HPM_P1;HPM_P2
2022/11/12 08:55:21;;;;;;;7.03;6.33;;;;;;;6.82;100.00;100606.97;5171877;27;20544;-78
2022/11/12 08:58:09;;;;;;;7.73;6.67;;;;;;;7.47;100.00;100604.75;5169559;27;39851;-79
2022/11/12 09:00:56;;;;;;;7.43;6.73;;;;;;;8.03;100.00;100615.81;5153246;27;41700;-79
2022/11/12 09:03:42;;;;;;;7.33;6.20;;;;;;;8.47;97.24;100620.00;5152577;27;42843;-80
2022/11/12 09:06:29;;;;;;;7.27;6.57;;;;;;;8.75;93.74;100596.38;5152973;27;41162;-80
2022/11/12 09:09:15;;;;;;;7.43;6.63;;;;;;;9.00;88.91;100607.13;5153056;27;39864;-80
2022/11/12 09:12:03;;;;;;;6.30;5.70;;;;;;;9.13;87.87;100608.50;5168801;27;41585;-79
2022/11/12 09:14:49;;;;;;;6.70;6.07;;;;;;;9.16;86.48;100591.66;5152444;27;41688;-80
2022/11/12 09:17:35;;;;;;;6.17;5.67;;;;;;;9.37;85.14;100604.28;5168407;27;42258;-79
2022/11/12 09:20:21;;;;;;;6.13;5.53;;;;;;;9.49;83.17;100603.91;5139014;27;39974;-79
2022/11/12 09:23:10;;;;;;;5.33;4.83;;;;;;;9.57;83.00;100601.03;5152742;27;41787;-80
2022/11/12 09:25:57;;;;;;;6.07;5.57;;;;;;;9.69;81.14;100619.16;5153125;27;41821;-79
2022/11/12 09:28:44;;;;;;;5.87;5.30;;;;;;;9.73;80.55;100619.03;5169456;27;42863;-80
2022/11/12 09:31:30;;;;;;;6.50;5.90;;;;;;;9.75;79.96;100612.84;5152645;27;38629;-79
2022/11/12 09:34:17;;;;;;;6.37;5.77;;;;;;;9.81;79.76;100617.91;5170187;27;41795;-79
2022/11/12 09:37:03;;;;;;;5.90;5.33;;;;;;;9.93;79.57;100612.25;5171212;27;42667;-79
2022/11/12 09:39:49;;;;;;;5.67;5.17;;;;;;;10.02;79.53;100601.34;5170790;27;42091;-80
2022/11/12 09:42:36;;;;;;;5.50;5.00;;;;;;;10.11;78.06;100609.00;5153017;27;38881;-79
2022/11/12 09:45:28;;;;;;;5.83;5.33;;;;;;;10.28;78.06;100617.28;5152517;27;40981;-79
2022/11/12 09:48:20;;;;;;;5.77;5.27;;;;;;;10.36;77.34;100612.63;5151989;27;41747;-79
2022/11/12 09:51:13;;;;;;;5.93;5.37;;;;;;;10.49;76.52;100612.19;5152760;27;40763;-79
2022/11/12 09:54:02;;;;;;;6.37;5.67;;;;;;;10.53;76.21;100605.84;5151351;27;39059;-80
2022/11/12 09:56:49;;;;;;;7.37;6.67;;;;;;;10.59;75.34;100606.53;5152398;27;40874;-79
2022/11/12 09:59:40;;;;;;;5.83;5.17;;;;;;;10.70;75.47;100606.16;5151554;27;42748;-79
2022/11/12 10:02:36;;;;;;;7.27;6.63;;;;;;;10.80;74.93;100608.41;5152082;27;41845;-79
2022/11/12 10:05:28;;;;;;;7.23;6.53;;;;;;;10.79;74.35;100603.16;5145319;27;39008;-79
2022/11/12 10:08:34;;;;;;;6.70;6.10;;;;;;;10.85;73.51;100600.31;5156312;27;41820;-81
2022/11/12 10:18:26;;;;;;;6.60;6.10;;;;;;;11.14;72.90;100597.44;5135532;27;38928;-80
2022/11/12 10:21:23;;;;;;;6.80;6.10;;;;;;;11.17;72.81;100593.81;5137679;27;40927;-79
2022/11/12 10:24:11;;;;;;;6.67;6.07;;;;;;;11.21;72.65;100602.53;5136235;27;41921;-77
2022/11/12 10:26:59;;;;;;;7.20;6.53;;;;;;;11.23;72.92;100590.97;5150602;27;43093;-78
2022/11/12 10:29:53;;;;;;;6.93;6.33;;;;;;;11.29;72.67;100589.84;5133964;27;39897;-79
2022/11/12 10:32:43;;;;;;;6.97;6.33;;;;;;;11.32;72.36;100589.75;5131673;27;43486;-79
2022/11/12 10:35:30;;;;;;;7.00;6.40;;;;;;;11.39;72.26;100586.78;5154286;27;43239;-78
2022/11/12 10:42:12;;;;;;;6.97;6.27;;;;;;;11.46;71.71;100580.34;5142402;27;40368;-79
2022/11/12 10:56:32;;;;;;;6.97;6.37;;;;;;;11.57;71.69;100574.59;5111886;27;38146;-79
2022/11/12 10:59:20;;;;;;;7.60;6.90;;;;;;;11.64;70.54;100577.88;5132778;27;42004;-79
2022/11/12 11:02:17;;;;;;;7.50;6.80;;;;;;;11.60;71.08;100552.41;5115124;27;43142;-78
2022/11/12 11:05:20;;;;;;;9.33;7.43;;;;;;;11.75;70.49;100568.59;5114974;27;42016;-78
2022/11/12 11:08:10;;;;;;;7.50;6.80;;;;;;;11.73;69.97;100565.13;5115271;27;40692;-79
2022/11/12 11:11:15;;;;;;;8.07;7.27;;;;;;;11.84;70.42;100562.06;5113946;27;40865;-79
2022/11/12 11:14:25;;;;;;;7.30;6.57;;;;;;;11.95;70.44;100548.34;5131318;27;42745;-78
2022/11/12 11:17:16;;;;;;;8.17;7.47;;;;;;;12.08;69.66;100538.94;5109670;27;41773;-78
2022/11/12 11:20:04;;;;;;;7.00;6.30;;;;;;;12.29;69.71;100548.66;5114470;27;40221;-79
2022/11/12 11:22:55;;;;;;;8.33;7.53;;;;;;;12.44;69.50;100548.00;5112416;27;41108;-79
2022/11/12 11:25:43;;;;;;;7.80;7.10;;;;;;;12.54;68.87;100552.00;5110980;27;44684;-78
2022/11/12 11:28:36;;;;;;;7.33;6.67;;;;;;;12.64;68.57;100552.44;5113887;27;41867;-79
2022/11/12 11:31:36;;;;;;;8.13;7.43;;;;;;;12.68;68.10;100556.72;5111981;27;39865;-79
2022/11/12 11:34:36;;;;;;;8.10;7.40;;;;;;;12.75;67.96;100552.84;5129871;27;41651;-78
2022/11/12 11:37:26;;;;;;;8.53;7.03;;;;;;;12.77;68.01;100545.66;5130836;27;43629;-79
2022/11/12 11:40:20;;;;;;;8.83;7.67;;;;;;;12.88;67.76;100547.84;5110702;27;41212;-77
2022/11/12 11:43:32;;;;;;;8.07;7.33;;;;;;;13.04;67.36;100542.69;5113974;27;38688;-77
2022/11/12 11:46:34;;;;;;;8.30;7.57;;;;;;;13.11;66.81;100550.31;5110709;27;41032;-78
2022/11/12 11:49:55;;;;;;;8.23;7.43;;;;;;;13.09;66.59;100535.38;5110328;27;43076;-79
2022/11/12 11:52:50;;;;;;;7.93;7.23;;;;;;;13.02;66.99;100521.47;5114453;27;42085;-78
2022/11/12 11:55:53;;;;;;;7.93;7.23;;;;;;;13.01;67.04;100522.41;5113859;27;40681;-77
2022/11/12 11:58:50;;;;;;;7.43;6.77;;;;;;;13.08;66.99;100533.66;5111895;27;40808;-79
2022/11/12 12:01:55;;;;;;;8.60;7.80;;;;;;;13.04;67.06;100527.59;5112925;27;42972;-78
2022/11/12 12:04:47;;;;;;;9.07;8.17;;;;;;;12.96;66.88;100527.09;5129225;27;42279;-78
2022/11/12 12:07:42;;;;;;;9.57;8.57;;;;;;;13.04;67.83;100522.28;5112444;27;39306;-78
2022/11/12 12:10:42;;;;;;;11.00;9.90;;;;;;;13.19;67.21;100516.28;5112857;27;40970;-79
2022/11/12 12:13:46;;;;;;;9.33;8.43;;;;;;;13.18;67.34;100503.91;5111099;27;41671;-78
2022/11/12 12:16:45;;;;;;;10.03;9.13;;;;;;;13.28;67.34;100504.34;5126170;27;43426;-79
2022/11/12 12:19:47;;;;;;;9.80;8.80;;;;;;;13.25;66.91;100510.66;5112941;27;41795;-78
2022/11/12 12:22:38;;;;;;;10.50;8.33;;;;;;;13.19;67.18;100513.63;5131708;27;42587;-78
2022/11/12 12:25:28;;;;;;;9.33;8.47;;;;;;;13.25;67.39;100508.00;5129383;27;42750;-78
2022/11/12 12:28:18;;;;;;;8.30;7.50;;;;;;;13.22;67.66;100500.19;5109194;27;42247;-78
2022/11/12 12:31:10;;;;;;;9.87;8.93;;;;;;;13.23;67.53;100507.22;5112007;27;40619;-78
2022/11/12 12:34:02;;;;;;;9.20;8.30;;;;;;;13.18;68.06;100497.72;5111409;27;42142;-78
2022/11/12 12:36:54;;;;;;;10.00;9.00;;;;;;;13.15;67.81;100493.41;5109021;27;43681;-79
2022/11/12 12:39:48;;;;;;;10.00;9.00;;;;;;;13.19;67.78;100492.34;5113928;27;42752;-78
2022/11/12 12:42:41;;;;;;;9.03;8.13;;;;;;;13.22;67.40;100494.00;5111676;27;38613;-78
2022/11/12 12:45:39;;;;;;;9.50;8.60;;;;;;;13.21;67.43;100497.59;5127098;27;41731;-79
2022/11/12 12:48:29;;;;;;;10.23;9.23;;;;;;;13.18;67.25;100498.59;5126964;27;43127;-78
2022/11/12 12:51:17;;;;;;;10.47;9.47;;;;;;;13.15;67.28;100487.22;5114007;27;40865;-78
2022/11/12 12:54:03;;;;;;;9.83;8.90;;;;;;;13.24;67.82;100482.31;5111321;27;39053;-78
2022/11/12 12:56:50;;;;;;;10.33;9.43;;;;;;;13.30;67.99;100490.03;5125438;27;42473;-79
2022/11/12 12:59:36;;;;;;;10.87;9.10;;;;;;;13.35;68.08;100478.31;5131066;27;43380;-78
2022/11/12 13:02:24;;;;;;;12.60;11.33;;;;;;;13.36;67.93;100477.34;5110707;27;41494;-78
2022/11/12 13:05:24;;;;;;;11.13;10.03;;;;;;;13.41;67.87;100476.22;5111239;27;38881;-78
2022/11/12 13:08:18;;;;;;;10.63;9.17;;;;;;;13.41;67.69;100478.00;5127717;27;41806;-78
2022/11/12 13:11:04;;;;;;;11.37;10.23;;;;;;;13.41;67.35;100478.00;5112551;27;43717;-78
2022/11/12 13:13:50;;;;;;;10.63;9.63;;;;;;;13.46;67.69;100470.66;5126543;27;42429;-78
2022/11/12 13:16:56;;;;;;;12.07;10.87;;;;;;;13.44;67.38;100472.53;5112565;27;40385;-78
2022/11/12 13:19:46;;;;;;;11.67;10.47;;;;;;;13.41;67.17;100456.72;5113230;27;40804;-78
2022/11/12 13:22:49;;;;;;;10.93;9.90;;;;;;;13.43;67.90;100458.38;5125312;27;43736;-79
2022/11/12 13:25:38;;;;;;;11.23;10.23;;;;;;;13.38;67.29;100457.72;5112509;27;42254;-79
2022/11/12 13:28:25;;;;;;;12.00;10.77;;;;;;;13.26;67.53;100445.88;5110278;27;40138;-78
2022/11/12 13:31:29;;;;;;;11.60;10.47;;;;;;;13.19;67.82;100428.50;5128593;27;42820;-78
2022/11/12 13:34:21;;;;;;;11.07;9.97;;;;;;;13.26;68.10;100437.88;5127289;27;43739;-79
2022/11/12 13:37:19;;;;;;;10.83;9.80;;;;;;;13.24;68.20;100430.91;5127310;27;42952;-79
2022/11/12 13:40:11;;;;;;;10.60;9.60;;;;;;;13.34;68.43;100445.53;5130879;27;40248;-78
2022/11/12 13:43:06;;;;;;;10.57;9.57;;;;;;;13.41;68.74;100443.41;5129392;27;41722;-79
2022/11/12 13:45:59;;;;;;;11.13;10.13;;;;;;;13.42;68.50;100434.50;5112423;27;42146;-80
2022/11/12 13:48:48;;;;;;;11.17;10.07;;;;;;;13.38;68.12;100422.25;5116076;27;41087;-79
2022/11/12 13:51:44;;;;;;;10.53;9.53;;;;;;;13.42;68.22;100432.69;5130165;27;40963;-79
2022/11/12 13:54:33;;;;;;;10.17;9.17;;;;;;;13.53;67.96;100446.34;5131692;27;41835;-79
2022/11/12 13:57:29;;;;;;;10.77;9.67;;;;;;;13.57;67.94;100436.41;5128300;27;43076;-79
2022/11/12 14:00:26;;;;;;;10.50;9.40;;;;;;;13.62;68.49;100434.34;5116160;27;42298;-78
2022/11/12 14:03:18;;;;;;;10.17;9.03;;;;;;;13.64;68.13;100433.34;5115694;27;39224;-78
2022/11/12 14:06:07;;;;;;;11.07;9.87;;;;;;;13.61;67.92;100438.81;5129732;27;42012;-78
2022/11/12 14:09:23;;;;;;;11.00;9.97;;;;;;;13.57;67.94;100431.94;5129971;27;43064;-78
2022/11/12 14:12:33;;;;;;;9.27;8.37;;;;;;;13.52;68.38;100438.41;5116002;27;41005;-78
2022/11/12 14:15:36;;;;;;;11.40;10.20;;;;;;;13.44;68.49;100435.28;5112020;27;39244;-78
2022/11/12 14:18:33;;;;;;;10.53;9.53;;;;;;;13.39;68.91;100431.97;5129200;27;42668;-78
2022/11/12 14:21:20;;;;;;;10.33;9.30;;;;;;;13.32;68.90;100435.88;5116911;27;42783;-78
2022/11/12 14:24:12;;;;;;;9.37;8.47;;;;;;;13.26;69.56;100431.69;5133938;27;42083;-78
2022/11/12 14:26:58;;;;;;;10.07;8.97;;;;;;;13.17;69.75;100421.50;5130673;27;39936;-78
2022/11/12 14:29:44;;;;;;;10.67;8.40;;;;;;;13.02;69.56;100416.88;5115816;27;42127;-79
2022/11/12 14:32:37;;;;;;;10.17;8.97;;;;;;;12.97;69.82;100419.78;5115763;27;44242;-78
2022/11/12 14:35:34;;;;;;;10.83;9.73;;;;;;;12.85;70.08;100421.22;5130134;27;42075;-79
2022/11/12 14:38:23;;;;;;;11.80;10.53;;;;;;;12.71;70.11;100412.16;5130481;27;39763;-79
2022/11/12 14:41:11;;;;;;;10.70;9.60;;;;;;;12.63;70.36;100412.50;5127446;27;41804;-79
2022/11/12 14:44:01;;;;;;;13.00;11.67;;;;;;;12.47;70.38;100399.06;5114725;27;42157;-79
2022/11/12 14:46:48;;;;;;;12.97;11.43;;;;;;;12.40;70.85;100410.03;5115741;27;41404;-79
2022/11/12 14:49:39;;;;;;;13.53;12.10;;;;;;;12.29;70.72;100402.56;5111010;27;39222;-79
2022/11/12 14:52:30;;;;;;;11.17;10.07;;;;;;;12.21;71.28;100399.38;5129165;27;41975;-79
2022/11/12 14:55:20;;;;;;;12.07;10.87;;;;;;;12.10;71.16;100399.88;5112427;27;42938;-79
2022/11/12 14:58:07;;;;;;;12.43;11.13;;;;;;;12.03;71.28;100397.53;5127764;27;43274;-79
2022/11/12 15:00:55;;;;;;;11.23;9.23;;;;;;;11.93;71.57;100399.72;5113030;27;39148;-79
2022/11/12 15:03:41;;;;;;;10.97;9.77;;;;;;;11.74;71.54;100374.88;5110995;27;41909;-79
2022/11/12 15:06:31;;;;;;;11.00;9.60;;;;;;;11.73;71.55;100389.94;5115178;27;42884;-79
2022/11/12 15:09:20;;;;;;;11.00;9.87;;;;;;;11.63;71.81;100377.97;5113088;27;41444;-79
2022/11/12 15:12:11;;;;;;;10.73;9.63;;;;;;;11.53;71.88;100382.81;5130426;27;41285;-79
2022/11/12 15:15:08;;;;;;;10.37;9.27;;;;;;;11.38;71.88;100374.63;5111958;27;40734;-79
2022/11/12 15:18:00;;;;;;;10.70;8.90;;;;;;;11.31;72.15;100383.78;5112903;27;41975;-82
2022/11/12 15:21:01;;;;;;;10.57;9.27;;;;;;;11.21;72.31;100387.72;5127625;27;43210;-78
2022/11/12 15:23:50;;;;;;;11.20;9.90;;;;;;;11.09;72.31;100376.69;5113175;27;39091;-79
2022/11/12 15:26:38;;;;;;;10.47;9.37;;;;;;;10.99;72.16;100374.47;5130182;27;41741;-79
2022/11/12 15:29:27;;;;;;;10.63;8.87;;;;;;;10.89;72.58;100373.09;5111881;27;41700;-79
2022/11/12 15:32:33;;;;;;;9.00;8.10;;;;;;;10.78;72.83;100376.16;5126853;27;42285;-79
2022/11/12 15:35:35;;;;;;;9.47;8.57;;;;;;;10.66;72.88;100374.88;5112412;27;38949;-79
2022/11/12 15:38:25;;;;;;;9.20;8.30;;;;;;;10.44;72.60;100356.28;5112918;27;42088;-80
2022/11/12 15:41:23;;;;;;;9.17;8.27;;;;;;;10.48;73.01;100372.06;5110572;27;41671;-80
2022/11/12 15:44:10;;;;;;;8.87;7.87;;;;;;;10.29;72.91;100361.28;5131834;27;42144;-80
2022/11/12 15:46:57;;;;;;;8.23;7.43;;;;;;;10.20;72.94;100349.25;5126071;27;40202;-79
2022/11/12 15:49:50;;;;;;;9.07;8.17;;;;;;;10.22;73.17;100357.16;5127851;27;42945;-79
2022/11/12 15:52:37;;;;;;;8.37;7.57;;;;;;;10.02;73.25;100344.59;5114362;27;41948;-79
2022/11/12 15:55:24;;;;;;;8.73;7.67;;;;;;;10.03;73.32;100348.97;5110317;27;42463;-79
2022/11/12 15:58:17;;;;;;;8.20;7.40;;;;;;;9.95;73.36;100343.09;5113586;27;39126;-79
2022/11/12 16:01:05;;;;;;;8.77;7.87;;;;;;;9.81;73.53;100329.50;5112966;27;42127;-79
2022/11/12 16:03:50;;;;;;;8.47;7.67;;;;;;;9.79;73.74;100339.28;5110382;27;42082;-80
2022/11/12 16:06:37;;;;;;;7.70;7.00;;;;;;;9.70;73.63;100338.69;5129408;27;43000;-79
2022/11/12 16:09:22;;;;;;;9.37;8.27;;;;;;;9.63;73.53;100329.25;5110358;27;41739;-79
2022/11/12 16:12:10;;;;;;;7.57;6.83;;;;;;;9.55;73.91;100328.63;5114155;27;40861;-79
2022/11/12 16:15:00;;;;;;;8.17;7.33;;;;;;;9.48;74.04;100321.84;5111378;27;43151;-80
2022/11/12 16:17:47;;;;;;;10.77;8.77;;;;;;;9.42;73.97;100324.69;5109967;27;41598;-80
2022/11/12 16:20:35;;;;;;;8.83;7.93;;;;;;;9.35;73.98;100324.06;5112042;27;40366;-78
2022/11/12 16:23:21;;;;;;;9.10;8.17;;;;;;;9.18;74.11;100314.94;5109058;27;41106;-79
2022/11/12 16:26:09;;;;;;;9.57;8.17;;;;;;;9.22;74.33;100328.03;5127627;27;43664;-78
2022/11/12 16:28:56;;;;;;;8.87;7.97;;;;;;;9.17;74.29;100331.72;5111163;27;41105;-79
2022/11/12 16:31:43;;;;;;;9.60;8.33;;;;;;;9.10;74.69;100328.44;5128652;27;40004;-79
2022/11/12 16:34:29;;;;;;;10.63;8.90;;;;;;;8.98;74.52;100319.13;5113572;27;41608;-79
2022/11/12 16:37:16;;;;;;;9.43;8.40;;;;;;;8.95;74.84;100323.63;5114192;27;41795;-79
2022/11/12 16:40:02;;;;;;;9.10;8.20;;;;;;;8.93;74.86;100342.19;5111427;27;42942;-80
2022/11/12 16:42:48;;;;;;;10.83;9.30;;;;;;;8.77;74.63;100314.53;5129443;27;42225;-78
2022/11/12 16:45:38;;;;;;;11.47;10.27;;;;;;;8.82;75.02;100341.66;5125582;27;42523;-81
2022/11/12 16:48:25;;;;;;;10.90;9.33;;;;;;;8.74;74.97;100346.34;5114383;27;42868;-78
2022/11/12 16:51:17;;;;;;;10.40;9.30;;;;;;;8.56;75.11;100315.19;5129916;27;42536;-80
2022/11/12 16:54:03;;;;;;;10.50;9.40;;;;;;;8.61;75.13;100329.13;5131046;27;39815;-79
2022/11/12 16:56:49;;;;;;;10.03;9.03;;;;;;;8.54;75.24;100330.22;5132690;27;42127;-79
2022/11/12 16:59:35;;;;;;;10.90;9.77;;;;;;;8.48;75.18;100333.06;5114917;27;41653;-79
2022/11/12 17:02:21;;;;;;;10.33;9.23;;;;;;;8.44;75.52;100342.84;5114882;27;41501;-79
2022/11/12 17:05:15;;;;;;;10.93;9.50;;;;;;;8.38;75.62;100337.75;5114901;27;39490;-79
2022/11/12 17:08:01;;;;;;;10.50;9.40;;;;;;;8.33;75.27;100338.78;5114506;27;40970;-79
2022/11/12 17:10:47;;;;;;;11.43;10.23;;;;;;;8.24;75.38;100324.94;5129665;27;42835;-79
2022/11/12 17:13:33;;;;;;;9.77;8.03;;;;;;;8.19;75.63;100320.69;5132992;27;43057;-79
2022/11/12 17:16:20;;;;;;;9.70;8.60;;;;;;;8.16;75.89;100319.00;5117133;27;38818;-78
2022/11/12 17:19:06;;;;;;;10.47;9.23;;;;;;;8.15;75.80;100325.22;5118701;27;40844;-80
2022/11/12 17:21:54;;;;;;;13.13;9.10;;;;;;;8.17;75.83;100318.09;5118338;27;43393;-80
2022/11/12 17:24:40;;;;;;;10.57;9.50;;;;;;;8.21;75.68;100321.50;5117750;27;42176;-80
2022/11/12 17:27:26;;;;;;;11.23;9.80;;;;;;;8.24;75.53;100324.06;5133352;27;39937;-79
2022/11/12 17:30:13;;;;;;;12.87;10.97;;;;;;;8.15;75.77;100297.97;5118425;27;40877;-79
2022/11/12 17:32:59;;;;;;;14.73;12.53;;;;;;;8.23;75.97;100312.66;5117920;27;44250;-78
2022/11/12 17:35:45;;;;;;;16.77;11.67;;;;;;;8.22;75.87;100310.91;5133344;27;42292;-79
2022/11/12 17:38:33;;;;;;;16.30;11.03;;;;;;;8.28;75.89;100320.44;5134451;27;40821;-79
2022/11/12 17:41:20;;;;;;;11.77;10.40;;;;;;;8.28;75.95;100321.28;5118372;27;41743;-79
2022/11/12 17:44:06;;;;;;;13.57;11.70;;;;;;;8.23;76.00;100296.81;5135195;27;42712;-80
2022/11/12 17:46:53;;;;;;;10.80;9.37;;;;;;;8.38;76.09;100315.78;5118130;27;41474;-79
2022/11/12 17:49:39;;;;;;;12.07;10.37;;;;;;;8.43;76.31;100316.47;5117961;27;38748;-79
2022/11/12 17:52:26;;;;;;;12.17;10.77;;;;;;;8.40;76.39;100303.41;5136486;27;41933;-79
2022/11/12 17:55:14;;;;;;;13.30;10.53;;;;;;;8.46;76.29;100309.34;5117527;27;42675;-79
2022/11/12 17:58:00;;;;;;;12.37;11.00;;;;;;;8.56;76.49;100318.69;5117457;27;42281;-79
2022/11/12 18:00:46;;;;;;;11.97;10.00;;;;;;;8.62;76.38;100307.97;5133003;27;40242;-79
2022/11/12 18:03:32;;;;;;;11.63;9.67;;;;;;;8.67;76.10;100310.44;5117459;27;41887;-80
2022/11/12 18:06:20;;;;;;;14.53;12.10;;;;;;;8.68;76.06;100308.66;5133121;27;44440;-79
2022/11/12 18:09:11;;;;;;;12.87;9.70;;;;;;;8.77;76.17;100306.63;5117774;27;41601;-79
2022/11/12 18:11:59;;;;;;;11.00;9.60;;;;;;;8.82;76.45;100309.97;5118284;27;38715;-79
2022/11/12 18:14:46;;;;;;;14.57;11.67;;;;;;;8.86;76.43;100302.81;5117924;27;41064;-80
2022/11/12 18:17:33;;;;;;;15.20;11.77;;;;;;;8.88;76.95;100307.13;5117592;27;42812;-78
2022/11/12 18:20:19;;;;;;;14.77;12.63;;;;;;;8.86;76.98;100298.38;5133066;27;42144;-79
2022/11/12 18:23:06;;;;;;;14.20;11.83;;;;;;;8.87;77.14;100301.91;5117776;27;39829;-80
2022/11/12 18:25:52;;;;;;;14.73;12.43;;;;;;;8.86;76.99;100303.69;5117172;27;41931;-81
2022/11/12 18:28:41;;;;;;;16.53;13.43;;;;;;;8.86;77.49;100298.38;5133825;27;42492;-80
2022/11/12 18:31:28;;;;;;;16.17;13.47;;;;;;;8.86;77.16;100298.38;5117493;27;43235;-78
